sensor_id;sensor_type;location;lat;lon;timestamp;pressure;altitude;pressure_sealevel;temperature;humidity
61618;BME280;47518;51.776;9.370;2023-02-10T00:01:19;102096.63;;;2.86;66.91
61618;BME280;47518;51.776;9.370;2023-02-10T00:03:45;102101.41;;;2.97;66.99
61618;BME280;47518;51.776;9.370;2023-02-10T00:06:12;102098.72;;;2.97;67.72
61618;BME280;47518;51.776;9.370;2023-02-10T00:08:38;102098.72;;;2.97;67.69
61618;BME280;47518;51.776;9.370;2023-02-10T00:11:06;102099.75;;;2.94;68.21
61618;BME280;47518;51.776;9.370;2023-02-10T00:13:32;102098.38;;;3.03;67.76
61618;BME280;47518;51.776;9.370;2023-02-10T00:15:59;102102.72;;;2.72;69.45
61618;BME280;47518;51.776;9.370;2023-02-10T00:18:25;102104.50;;;2.89;69.00
61618;BME280;47518;51.776;9.370;2023-02-10T00:20:51;102104.72;;;3.02;68.62
61618;BME280;47518;51.776;9.370;2023-02-10T00:23:16;102106.38;;;3.04;69.57
61618;BME280;47518;51.776;9.370;2023-02-10T00:25:42;102110.69;;;3.07;69.16
61618;BME280;47518;51.776;9.370;2023-02-10T00:28:07;102115.03;;;3.09;69.45
61618;BME280;47518;51.776;9.370;2023-02-10T00:30:33;102108.28;;;3.02;70.77
61618;BME280;47518;51.776;9.370;2023-02-10T00:32:58;102108.97;;;3.06;70.37
61618;BME280;47518;51.776;9.370;2023-02-10T00:35:25;102099.16;;;3.05;69.82
61618;BME280;47518;51.776;9.370;2023-02-10T00:37:50;102109.56;;;3.11;69.52
61618;BME280;47518;51.776;9.370;2023-02-10T00:40:16;102107.81;;;3.10;70.08
61618;BME280;47518;51.776;9.370;2023-02-10T00:42:42;102110.38;;;3.13;69.31
61618;BME280;47518;51.776;9.370;2023-02-10T00:45:08;102104.03;;;3.14;70.44
61618;BME280;47518;51.776;9.370;2023-02-10T00:47:34;102106.09;;;3.09;70.15
61618;BME280;47518;51.776;9.370;2023-02-10T00:49:59;102113.06;;;3.13;69.55
61618;BME280;47518;51.776;9.370;2023-02-10T00:52:25;102104.81;;;3.16;69.80
61618;BME280;47518;51.776;9.370;2023-02-10T00:54:50;102112.78;;;3.02;71.78
61618;BME280;47518;51.776;9.370;2023-02-10T00:57:15;102122.56;;;3.03;72.47
61618;BME280;47518;51.776;9.370;2023-02-10T00:59:41;102124.81;;;3.10;71.98
61618;BME280;47518;51.776;9.370;2023-02-10T01:02:06;102118.56;;;3.10;72.61
61618;BME280;47518;51.776;9.370;2023-02-10T01:04:32;102121.03;;;3.14;72.29
61618;BME280;47518;51.776;9.370;2023-02-10T01:06:57;102118.16;;;3.17;71.69
61618;BME280;47518;51.776;9.370;2023-02-10T01:09:23;102122.69;;;3.17;71.36
61618;BME280;47518;51.776;9.370;2023-02-10T01:11:48;102115.22;;;3.22;71.67
61618;BME280;47518;51.776;9.370;2023-02-10T01:14:13;102119.34;;;3.12;72.05
61618;BME280;47518;51.776;9.370;2023-02-10T01:16:39;102119.22;;;3.15;72.88
61618;BME280;47518;51.776;9.370;2023-02-10T01:19:05;102124.41;;;3.18;73.27
61618;BME280;47518;51.776;9.370;2023-02-10T01:21:31;102125.28;;;3.18;72.58
61618;BME280;47518;51.776;9.370;2023-02-10T01:23:56;102121.97;;;3.13;72.49
61618;BME280;47518;51.776;9.370;2023-02-10T01:26:22;102127.59;;;3.09;73.23
61618;BME280;47518;51.776;9.370;2023-02-10T01:28:50;102133.94;;;3.23;73.11
61618;BME280;47518;51.776;9.370;2023-02-10T01:31:18;102138.13;;;3.13;73.43
61618;BME280;47518;51.776;9.370;2023-02-10T01:33:44;102136.13;;;3.17;74.50
61618;BME280;47518;51.776;9.370;2023-02-10T01:36:13;102134.75;;;3.26;73.93
61618;BME280;47518;51.776;9.370;2023-02-10T01:38:39;102121.72;;;3.34;73.46
61618;BME280;47518;51.776;9.370;2023-02-10T01:41:05;102127.63;;;3.40;73.66
61618;BME280;47518;51.776;9.370;2023-02-10T01:43:31;102129.53;;;3.38;73.66
61618;BME280;47518;51.776;9.370;2023-02-10T01:45:57;102135.44;;;3.29;72.14
61618;BME280;47518;51.776;9.370;2023-02-10T01:48:24;102124.41;;;3.34;72.35
61618;BME280;47518;51.776;9.370;2023-02-10T01:50:57;102130.22;;;3.26;72.56
61618;BME280;47518;51.776;9.370;2023-02-10T01:53:26;102128.59;;;3.39;71.83
61618;BME280;47518;51.776;9.370;2023-02-10T01:55:55;102116.09;;;3.38;71.92
61618;BME280;47518;51.776;9.370;2023-02-10T01:58:26;102122.44;;;3.37;72.53
61618;BME280;47518;51.776;9.370;2023-02-10T02:00:53;102121.91;;;3.31;72.36
61618;BME280;47518;51.776;9.370;2023-02-10T02:03:18;102130.38;;;3.23;72.55
61618;BME280;47518;51.776;9.370;2023-02-10T02:05:44;102124.69;;;3.29;71.72
61618;BME280;47518;51.776;9.370;2023-02-10T02:08:14;102127.81;;;3.37;71.21
61618;BME280;47518;51.776;9.370;2023-02-10T02:50:26;102146.50;;;3.23;73.00
61618;BME280;47518;51.776;9.370;2023-02-10T03:06:04;102141.66;;;3.14;73.80
61618;BME280;47518;51.776;9.370;2023-02-10T03:08:31;102147.22;;;3.27;73.54
61618;BME280;47518;51.776;9.370;2023-02-10T03:10:58;102148.31;;;3.22;73.71
61618;BME280;47518;51.776;9.370;2023-02-10T03:13:23;102138.88;;;3.15;73.66
61618;BME280;47518;51.776;9.370;2023-02-10T03:15:48;102134.03;;;3.22;73.16
61618;BME280;47518;51.776;9.370;2023-02-10T03:18:14;102137.44;;;3.26;74.07
61618;BME280;47518;51.776;9.370;2023-02-10T03:20:40;102137.66;;;3.21;73.70
61618;BME280;47518;51.776;9.370;2023-02-10T03:23:05;102134.97;;;3.05;75.11
61618;BME280;47518;51.776;9.370;2023-02-10T03:25:31;102134.78;;;3.08;74.71
61618;BME280;47518;51.776;9.370;2023-02-10T03:27:57;102134.63;;;3.11;74.93
61618;BME280;47518;51.776;9.370;2023-02-10T03:30:22;102138.72;;;3.18;75.25
61618;BME280;47518;51.776;9.370;2023-02-10T03:32:48;102129.88;;;3.16;75.44
61618;BME280;47518;51.776;9.370;2023-02-10T03:35:14;102138.44;;;3.23;73.80
61618;BME280;47518;51.776;9.370;2023-02-10T03:37:39;102147.38;;;3.23;74.43
61618;BME280;47518;51.776;9.370;2023-02-10T03:40:05;102150.50;;;3.16;74.42
61618;BME280;47518;51.776;9.370;2023-02-10T03:42:30;102147.28;;;3.09;74.85
61618;BME280;47518;51.776;9.370;2023-02-10T03:44:55;102145.03;;;3.17;74.73
61618;BME280;47518;51.776;9.370;2023-02-10T03:47:21;102155.00;;;3.15;74.82
61618;BME280;47518;51.776;9.370;2023-02-10T03:49:46;102140.94;;;3.10;75.55
61618;BME280;47518;51.776;9.370;2023-02-10T03:52:11;102135.53;;;2.95;76.38
61618;BME280;47518;51.776;9.370;2023-02-10T03:54:37;102131.63;;;2.84;76.82
61618;BME280;47518;51.776;9.370;2023-02-10T03:57:02;102138.59;;;2.71;76.86
61618;BME280;47518;51.776;9.370;2023-02-10T03:59:27;102131.88;;;2.80;77.54
61618;BME280;47518;51.776;9.370;2023-02-10T04:01:53;102138.25;;;2.77;77.45
61618;BME280;47518;51.776;9.370;2023-02-10T04:04:18;102141.69;;;2.63;77.68
61618;BME280;47518;51.776;9.370;2023-02-10T04:06:43;102151.91;;;2.57;77.53
61618;BME280;47518;51.776;9.370;2023-02-10T04:09:09;102144.88;;;2.37;77.83
61618;BME280;47518;51.776;9.370;2023-02-10T04:11:34;102149.03;;;2.43;77.74
61618;BME280;47518;51.776;9.370;2023-02-10T04:13:59;102151.66;;;2.27;78.95
61618;BME280;47518;51.776;9.370;2023-02-10T04:16:25;102155.19;;;2.27;78.81
61618;BME280;47518;51.776;9.370;2023-02-10T04:18:53;102154.09;;;2.14;79.87
61618;BME280;47518;51.776;9.370;2023-02-10T04:21:19;102156.63;;;2.17;80.38
61618;BME280;47518;51.776;9.370;2023-02-10T04:23:45;102159.50;;;1.95;81.05
61618;BME280;47518;51.776;9.370;2023-02-10T04:26:10;102156.47;;;1.84;81.56
61618;BME280;47518;51.776;9.370;2023-02-10T04:28:35;102151.69;;;1.91;81.71
61618;BME280;47518;51.776;9.370;2023-02-10T04:31:01;102153.41;;;1.74;83.41
61618;BME280;47518;51.776;9.370;2023-02-10T04:33:27;102151.16;;;1.65;83.81
61618;BME280;47518;51.776;9.370;2023-02-10T04:35:54;102150.66;;;1.76;83.50
61618;BME280;47518;51.776;9.370;2023-02-10T04:38:20;102159.69;;;1.73;84.20
61618;BME280;47518;51.776;9.370;2023-02-10T04:40:46;102148.69;;;1.61;83.79
61618;BME280;47518;51.776;9.370;2023-02-10T04:43:12;102154.41;;;1.72;83.60
61618;BME280;47518;51.776;9.370;2023-02-10T04:45:38;102157.25;;;1.69;83.15
61618;BME280;47518;51.776;9.370;2023-02-10T04:48:03;102149.59;;;1.42;84.89
61618;BME280;47518;51.776;9.370;2023-02-10T04:50:29;102150.44;;;1.62;84.29
61618;BME280;47518;51.776;9.370;2023-02-10T04:52:55;102150.47;;;1.43;84.63
61618;BME280;47518;51.776;9.370;2023-02-10T04:55:20;102159.44;;;1.42;84.89
61618;BME280;47518;51.776;9.370;2023-02-10T04:57:46;102148.34;;;1.50;83.62
61618;BME280;47518;51.776;9.370;2023-02-10T05:00:12;102155.50;;;1.49;84.29
61618;BME280;47518;51.776;9.370;2023-02-10T05:02:37;102156.97;;;1.56;85.44
61618;BME280;47518;51.776;9.370;2023-02-10T05:05:04;102157.41;;;1.66;83.41
61618;BME280;47518;51.776;9.370;2023-02-10T05:07:29;102148.88;;;1.20;86.78
61618;BME280;47518;51.776;9.370;2023-02-10T05:09:55;102145.81;;;1.09;87.86
61618;BME280;47518;51.776;9.370;2023-02-10T05:12:20;102143.13;;;1.46;86.89
61618;BME280;47518;51.776;9.370;2023-02-10T05:14:45;102150.81;;;1.54;85.74
61618;BME280;47518;51.776;9.370;2023-02-10T05:17:11;102154.72;;;1.47;86.42
61618;BME280;47518;51.776;9.370;2023-02-10T05:19:36;102148.72;;;1.42;85.77
61618;BME280;47518;51.776;9.370;2023-02-10T05:22:01;102156.63;;;1.45;85.84
61618;BME280;47518;51.776;9.370;2023-02-10T05:24:27;102156.69;;;1.25;87.02
61618;BME280;47518;51.776;9.370;2023-02-10T05:26:52;102158.66;;;1.40;86.22
61618;BME280;47518;51.776;9.370;2023-02-10T05:29:17;102172.06;;;1.40;87.10
61618;BME280;47518;51.776;9.370;2023-02-10T05:31:43;102162.75;;;1.66;85.34
61618;BME280;47518;51.776;9.370;2023-02-10T05:34:08;102161.66;;;1.70;85.94
61618;BME280;47518;51.776;9.370;2023-02-10T05:36:33;102167.63;;;1.94;84.67
61618;BME280;47518;51.776;9.370;2023-02-10T05:38:59;102163.19;;;1.75;84.62
61618;BME280;47518;51.776;9.370;2023-02-10T05:41:44;102164.69;;;1.81;84.82
61618;BME280;47518;51.776;9.370;2023-02-10T05:44:09;102169.69;;;1.70;85.29
61618;BME280;47518;51.776;9.370;2023-02-10T05:46:35;102171.91;;;1.98;84.38
61618;BME280;47518;51.776;9.370;2023-02-10T05:49:00;102188.72;;;2.01;84.80
61618;BME280;47518;51.776;9.370;2023-02-10T05:51:26;102184.31;;;2.00;85.06
61618;BME280;47518;51.776;9.370;2023-02-10T05:53:51;102191.16;;;2.06;84.56
61618;BME280;47518;51.776;9.370;2023-02-10T05:56:16;102195.84;;;2.20;83.81
61618;BME280;47518;51.776;9.370;2023-02-10T05:58:42;102199.72;;;2.31;83.16
61618;BME280;47518;51.776;9.370;2023-02-10T06:01:08;102200.53;;;2.51;82.67
61618;BME280;47518;51.776;9.370;2023-02-10T06:03:34;102202.44;;;2.49;83.20
61618;BME280;47518;51.776;9.370;2023-02-10T06:05:59;102210.56;;;2.64;82.01
61618;BME280;47518;51.776;9.370;2023-02-10T06:08:25;102200.97;;;2.76;81.91
61618;BME280;47518;51.776;9.370;2023-02-10T06:35:49;102227.50;;;2.13;84.66
61618;BME280;47518;51.776;9.370;2023-02-10T06:38:15;102223.63;;;2.19;81.79
61618;BME280;47518;51.776;9.370;2023-02-10T06:40:41;102237.72;;;2.05;82.54
61618;BME280;47518;51.776;9.370;2023-02-10T06:43:06;102232.81;;;2.32;81.93
61618;BME280;47518;51.776;9.370;2023-02-10T06:45:32;102244.59;;;2.47;81.73
61618;BME280;47518;51.776;9.370;2023-02-10T06:47:58;102241.88;;;2.29;81.85
61618;BME280;47518;51.776;9.370;2023-02-10T06:50:24;102233.81;;;2.29;81.75
61618;BME280;47518;51.776;9.370;2023-02-10T06:52:49;102239.75;;;2.36;82.09
61618;BME280;47518;51.776;9.370;2023-02-10T06:55:15;102236.91;;;2.39;81.09
61618;BME280;47518;51.776;9.370;2023-02-10T06:57:40;102242.13;;;2.42;81.15
61618;BME280;47518;51.776;9.370;2023-02-10T07:00:13;102241.13;;;2.45;81.28
61618;BME280;47518;51.776;9.370;2023-02-10T07:02:39;102232.91;;;2.48;82.96
61618;BME280;47518;51.776;9.370;2023-02-10T07:05:06;102239.56;;;2.58;81.92
61618;BME280;47518;51.776;9.370;2023-02-10T07:07:35;102244.44;;;2.50;82.63
61618;BME280;47518;51.776;9.370;2023-02-10T07:10:00;102239.84;;;2.52;82.94
61618;BME280;47518;51.776;9.370;2023-02-10T07:12:26;102233.84;;;2.64;82.36
61618;BME280;47518;51.776;9.370;2023-02-10T07:14:52;102246.50;;;2.62;82.27
61618;BME280;47518;51.776;9.370;2023-02-10T07:17:18;102252.88;;;2.77;82.45
61618;BME280;47518;51.776;9.370;2023-02-10T07:19:44;102254.94;;;2.72;81.11
61618;BME280;47518;51.776;9.370;2023-02-10T07:22:09;102251.69;;;2.65;81.25
61618;BME280;47518;51.776;9.370;2023-02-10T07:24:36;102266.00;;;2.83;81.07
61618;BME280;47518;51.776;9.370;2023-02-10T07:27:02;102271.56;;;2.80;80.82
61618;BME280;47518;51.776;9.370;2023-02-10T07:29:29;102269.31;;;2.71;81.19
61618;BME280;47518;51.776;9.370;2023-02-10T07:31:54;102267.34;;;2.74;81.26
61618;BME280;47518;51.776;9.370;2023-02-10T07:34:20;102274.03;;;2.66;81.16
61618;BME280;47518;51.776;9.370;2023-02-10T07:36:47;102271.09;;;2.36;82.45
61618;BME280;47518;51.776;9.370;2023-02-10T07:39:15;102276.31;;;2.39;82.23
61618;BME280;47518;51.776;9.370;2023-02-10T07:41:40;102276.69;;;2.67;81.30
61618;BME280;47518;51.776;9.370;2023-02-10T07:44:06;102269.56;;;2.83;80.51
61618;BME280;47518;51.776;9.370;2023-02-10T07:46:31;102262.69;;;2.95;79.86
61618;BME280;47518;51.776;9.370;2023-02-10T07:48:57;102268.69;;;3.00;79.70
61618;BME280;47518;51.776;9.370;2023-02-10T07:51:22;102272.56;;;2.95;80.26
61618;BME280;47518;51.776;9.370;2023-02-10T07:53:48;102277.22;;;3.08;80.15
61618;BME280;47518;51.776;9.370;2023-02-10T07:56:13;102277.59;;;3.18;79.80
61618;BME280;47518;51.776;9.370;2023-02-10T07:58:41;102278.63;;;3.15;79.24
61618;BME280;47518;51.776;9.370;2023-02-10T08:01:08;102273.19;;;3.17;79.99
61618;BME280;47518;51.776;9.370;2023-02-10T08:03:37;102277.03;;;3.11;79.24
61618;BME280;47518;51.776;9.370;2023-02-10T08:06:05;102273.50;;;3.11;80.67
61618;BME280;47518;51.776;9.370;2023-02-10T08:08:31;102286.25;;;3.40;79.54
61618;BME280;47518;51.776;9.370;2023-02-10T08:10:57;102268.69;;;3.50;79.77
61618;BME280;47518;51.776;9.370;2023-02-10T08:13:36;102272.63;;;3.76;77.38
61618;BME280;47518;51.776;9.370;2023-02-10T08:16:08;102272.88;;;3.72;78.63
61618;BME280;47518;51.776;9.370;2023-02-10T08:18:39;102281.50;;;3.94;79.13
61618;BME280;47518;51.776;9.370;2023-02-10T08:21:11;102279.22;;;4.02;78.71
61618;BME280;47518;51.776;9.370;2023-02-10T08:23:37;102292.34;;;4.24;77.88
61618;BME280;47518;51.776;9.370;2023-02-10T08:26:08;102287.47;;;4.15;76.88
61618;BME280;47518;51.776;9.370;2023-02-10T08:28:37;102285.66;;;4.31;77.17
61618;BME280;47518;51.776;9.370;2023-02-10T08:31:06;102288.34;;;4.31;77.21
61618;BME280;47518;51.776;9.370;2023-02-10T08:33:36;102295.09;;;3.75;77.66
61618;BME280;47518;51.776;9.370;2023-02-10T08:36:06;102297.00;;;3.73;79.00
61618;BME280;47518;51.776;9.370;2023-02-10T08:38:32;102298.19;;;3.52;79.38
61618;BME280;47518;51.776;9.370;2023-02-10T08:40:59;102289.31;;;3.83;78.21
61618;BME280;47518;51.776;9.370;2023-02-10T08:43:25;102290.03;;;3.54;79.70
61618;BME280;47518;51.776;9.370;2023-02-10T08:45:58;102288.84;;;3.75;78.28
61618;BME280;47518;51.776;9.370;2023-02-10T08:48:23;102281.25;;;3.50;79.18
61618;BME280;47518;51.776;9.370;2023-02-10T08:50:49;102287.69;;;3.30;80.16
61618;BME280;47518;51.776;9.370;2023-02-10T08:53:16;102293.66;;;3.53;79.77
61618;BME280;47518;51.776;9.370;2023-02-10T08:55:42;102300.66;;;3.88;78.21
61618;BME280;47518;51.776;9.370;2023-02-10T08:58:07;102294.97;;;3.94;78.50
61618;BME280;47518;51.776;9.370;2023-02-10T09:00:33;102300.16;;;3.97;78.18
61618;BME280;47518;51.776;9.370;2023-02-10T09:03:02;102295.66;;;3.98;77.48
61618;BME280;47518;51.776;9.370;2023-02-10T09:05:35;102293.94;;;3.64;79.36
61618;BME280;47518;51.776;9.370;2023-02-10T09:08:00;102291.03;;;3.84;78.23
61618;BME280;47518;51.776;9.370;2023-02-10T09:10:26;102288.06;;;3.73;78.50
61618;BME280;47518;51.776;9.370;2023-02-10T09:12:51;102291.81;;;3.86;79.11
61618;BME280;47518;51.776;9.370;2023-02-10T09:15:17;102307.59;;;3.76;80.30
61618;BME280;47518;51.776;9.370;2023-02-10T09:17:42;102306.03;;;3.72;80.23
61618;BME280;47518;51.776;9.370;2023-02-10T09:20:08;102306.25;;;4.01;80.03
61618;BME280;47518;51.776;9.370;2023-02-10T09:22:35;102303.97;;;3.93;80.24
61618;BME280;47518;51.776;9.370;2023-02-10T09:25:03;102310.97;;;3.80;79.26
61618;BME280;47518;51.776;9.370;2023-02-10T09:27:28;102311.03;;;3.63;80.53
61618;BME280;47518;51.776;9.370;2023-02-10T09:29:54;102316.34;;;3.64;81.05
61618;BME280;47518;51.776;9.370;2023-02-10T09:32:19;102317.50;;;3.92;80.39
61618;BME280;47518;51.776;9.370;2023-02-10T09:34:44;102326.03;;;3.84;79.58
61618;BME280;47518;51.776;9.370;2023-02-10T09:37:10;102313.53;;;3.83;79.51
61618;BME280;47518;51.776;9.370;2023-02-10T09:39:36;102316.53;;;3.77;80.13
61618;BME280;47518;51.776;9.370;2023-02-10T09:44:51;102328.25;;;3.76;80.62
61618;BME280;47518;51.776;9.370;2023-02-10T10:00:41;102339.59;;;4.30;79.41
61618;BME280;47518;51.776;9.370;2023-02-10T10:03:13;102330.28;;;3.88;79.81
61618;BME280;47518;51.776;9.370;2023-02-10T10:19:13;102327.41;;;4.70;72.71
61618;BME280;47518;51.776;9.370;2023-02-10T10:35:22;102336.06;;;4.91;73.36
61618;BME280;47518;51.776;9.370;2023-02-10T10:37:50;102326.56;;;4.84;74.10
61618;BME280;47518;51.776;9.370;2023-02-10T10:40:24;102341.63;;;4.88;74.43
61618;BME280;47518;51.776;9.370;2023-02-10T10:42:54;102320.22;;;5.01;72.84
61618;BME280;47518;51.776;9.370;2023-02-10T10:58:36;102307.09;;;5.67;70.78
61618;BME280;47518;51.776;9.370;2023-02-10T11:01:03;102302.84;;;5.49;71.51
61618;BME280;47518;51.776;9.370;2023-02-10T11:03:31;102304.78;;;5.33;72.40
61618;BME280;47518;51.776;9.370;2023-02-10T11:06:01;102301.22;;;5.46;71.43
61618;BME280;47518;51.776;9.370;2023-02-10T11:08:38;102293.59;;;5.24;72.01
61618;BME280;47518;51.776;9.370;2023-02-10T11:11:09;102298.22;;;5.65;72.21
61618;BME280;47518;51.776;9.370;2023-02-10T11:13:38;102285.31;;;5.84;69.54
61618;BME280;47518;51.776;9.370;2023-02-10T11:16:10;102290.34;;;5.91;69.29
61618;BME280;47518;51.776;9.370;2023-02-10T11:18:37;102279.94;;;5.70;69.88
61618;BME280;47518;51.776;9.370;2023-02-10T11:21:06;102278.94;;;5.85;69.09
61618;BME280;47518;51.776;9.370;2023-02-10T11:23:36;102272.38;;;5.90;68.86
61618;BME280;47518;51.776;9.370;2023-02-10T11:26:26;102280.41;;;6.05;69.17
61618;BME280;47518;51.776;9.370;2023-02-10T11:28:53;102263.13;;;6.08;67.99
61618;BME280;47518;51.776;9.370;2023-02-10T11:44:29;102268.44;;;6.36;66.48
61618;BME280;47518;51.776;9.370;2023-02-10T11:46:57;102268.28;;;6.52;65.85
61618;BME280;47518;51.776;9.370;2023-02-10T11:49:23;102264.19;;;6.59;65.70
61618;BME280;47518;51.776;9.370;2023-02-10T11:51:54;102262.56;;;6.57;65.24
61618;BME280;47518;51.776;9.370;2023-02-10T11:54:20;102253.00;;;6.78;65.72
61618;BME280;47518;51.776;9.370;2023-02-10T11:56:59;102257.91;;;6.98;63.41
61618;BME280;47518;51.776;9.370;2023-02-10T11:59:59;102244.16;;;6.89;64.81
61618;BME280;47518;51.776;9.370;2023-02-10T12:48:40;102204.81;;;10.58;50.77
61618;BME280;47518;51.776;9.370;2023-02-10T12:51:33;102219.63;;;10.11;51.26
61618;BME280;47518;51.776;9.370;2023-02-10T12:54:05;102208.09;;;9.19;50.33
61618;BME280;47518;51.776;9.370;2023-02-10T12:56:43;102206.81;;;9.01;49.38
61618;BME280;47518;51.776;9.370;2023-02-10T12:59:18;102195.00;;;8.67;49.55
61618;BME280;47518;51.776;9.370;2023-02-10T13:01:50;102190.34;;;8.69;50.27
61618;BME280;47518;51.776;9.370;2023-02-10T13:04:22;102198.97;;;8.39;51.13
61618;BME280;47518;51.776;9.370;2023-02-10T13:06:56;102196.88;;;7.95;52.57
61618;BME280;47518;51.776;9.370;2023-02-10T13:12:22;102198.16;;;8.02;51.54
61618;BME280;47518;51.776;9.370;2023-02-10T13:14:52;102192.09;;;7.49;52.73
61618;BME280;47518;51.776;9.370;2023-02-10T13:17:19;102199.69;;;7.93;52.55
61618;BME280;47518;51.776;9.370;2023-02-10T13:20:00;102187.41;;;8.37;52.06
61618;BME280;47518;51.776;9.370;2023-02-10T13:35:40;102174.22;;;8.43;51.79
61618;BME280;47518;51.776;9.370;2023-02-10T13:38:09;102162.81;;;7.79;53.01
61618;BME280;47518;51.776;9.370;2023-02-10T13:40:49;102156.16;;;7.83;53.56
61618;BME280;47518;51.776;9.370;2023-02-10T13:43:32;102152.59;;;7.83;53.34
61618;BME280;47518;51.776;9.370;2023-02-10T13:45:59;102150.09;;;7.56;53.92
61618;BME280;47518;51.776;9.370;2023-02-10T13:48:30;102150.44;;;7.88;52.04
61618;BME280;47518;51.776;9.370;2023-02-10T13:51:02;102154.16;;;7.25;54.73
61618;BME280;47518;51.776;9.370;2023-02-10T14:06:46;102135.22;;;7.25;55.44
61618;BME280;47518;51.776;9.370;2023-02-10T14:09:33;102126.97;;;7.39;56.07
61618;BME280;47518;51.776;9.370;2023-02-10T14:32:53;102117.72;;;7.05;54.44
61618;BME280;47518;51.776;9.370;2023-02-10T14:35:21;102112.00;;;6.97;54.06
61618;BME280;47518;51.776;9.370;2023-02-10T14:37:49;102119.25;;;6.96;53.28
61618;BME280;47518;51.776;9.370;2023-02-10T14:43:00;102114.72;;;6.84;53.03
61618;BME280;47518;51.776;9.370;2023-02-10T14:45:27;102118.06;;;6.88;53.27
61618;BME280;47518;51.776;9.370;2023-02-10T14:47:55;102108.66;;;6.81;52.11
61618;BME280;47518;51.776;9.370;2023-02-10T14:50:28;102099.25;;;6.86;53.51
61618;BME280;47518;51.776;9.370;2023-02-10T14:52:55;102105.31;;;6.77;54.89
61618;BME280;47518;51.776;9.370;2023-02-10T14:55:31;102104.34;;;6.65;55.13
61618;BME280;47518;51.776;9.370;2023-02-10T14:58:15;102102.94;;;6.85;54.74
61618;BME280;47518;51.776;9.370;2023-02-10T15:00:57;102088.53;;;6.97;53.99
61618;BME280;47518;51.776;9.370;2023-02-10T15:03:25;102099.34;;;6.47;53.70
61618;BME280;47518;51.776;9.370;2023-02-10T15:05:52;102100.41;;;6.44;54.20
61618;BME280;47518;51.776;9.370;2023-02-10T15:08:29;102096.22;;;6.65;54.08
61618;BME280;47518;51.776;9.370;2023-02-10T15:10:57;102101.06;;;6.48;54.09
61618;BME280;47518;51.776;9.370;2023-02-10T15:13:31;102109.50;;;6.56;53.66
61618;BME280;47518;51.776;9.370;2023-02-10T15:15:59;102104.31;;;6.53;53.94
61618;BME280;47518;51.776;9.370;2023-02-10T15:18:28;102100.84;;;6.38;53.72
61618;BME280;47518;51.776;9.370;2023-02-10T15:20:59;102104.53;;;6.37;54.68
61618;BME280;47518;51.776;9.370;2023-02-10T15:23:25;102102.59;;;6.52;53.61
61618;BME280;47518;51.776;9.370;2023-02-10T15:26:18;102105.47;;;6.36;54.41
61618;BME280;47518;51.776;9.370;2023-02-10T15:28:43;102106.00;;;6.16;54.87
61618;BME280;47518;51.776;9.370;2023-02-10T15:57:25;102096.63;;;5.26;57.69
61618;BME280;47518;51.776;9.370;2023-02-10T15:59:51;102095.75;;;5.25;58.61
61618;BME280;47518;51.776;9.370;2023-02-10T16:02:19;102095.19;;;5.35;58.24
61618;BME280;47518;51.776;9.370;2023-02-10T16:04:45;102093.84;;;5.13;58.51
61618;BME280;47518;51.776;9.370;2023-02-10T16:07:19;102088.84;;;4.93;59.89
61618;BME280;47518;51.776;9.370;2023-02-10T16:09:45;102096.75;;;4.96;60.25
61618;BME280;47518;51.776;9.370;2023-02-10T16:12:11;102089.63;;;4.81;60.63
61618;BME280;47518;51.776;9.370;2023-02-10T16:14:37;102093.09;;;4.83;60.73
61618;BME280;47518;51.776;9.370;2023-02-10T16:17:02;102090.97;;;4.74;60.51
61618;BME280;47518;51.776;9.370;2023-02-10T16:19:28;102091.25;;;4.69;61.21
61618;BME280;47518;51.776;9.370;2023-02-10T16:21:55;102086.44;;;4.60;61.67
61618;BME280;47518;51.776;9.370;2023-02-10T16:24:23;102077.78;;;4.41;62.34
61618;BME280;47518;51.776;9.370;2023-02-10T16:26:48;102086.78;;;4.39;62.16
61618;BME280;47518;51.776;9.370;2023-02-10T16:29:16;102076.53;;;4.46;62.50
61618;BME280;47518;51.776;9.370;2023-02-10T16:31:42;102079.88;;;4.35;63.19
61618;BME280;47518;51.776;9.370;2023-02-10T16:34:08;102086.41;;;4.31;63.46
61618;BME280;47518;51.776;9.370;2023-02-10T16:36:34;102086.88;;;4.24;63.69
61618;BME280;47518;51.776;9.370;2023-02-10T16:38:59;102082.75;;;4.02;64.33
61618;BME280;47518;51.776;9.370;2023-02-10T16:41:25;102091.22;;;3.96;64.87
61618;BME280;47518;51.776;9.370;2023-02-10T16:43:50;102102.22;;;4.07;64.31
61618;BME280;47518;51.776;9.370;2023-02-10T16:46:16;102099.53;;;3.92;65.12
61618;BME280;47518;51.776;9.370;2023-02-10T16:48:42;102094.34;;;3.89;64.87
61618;BME280;47518;51.776;9.370;2023-02-10T16:51:08;102107.72;;;3.90;65.61
61618;BME280;47518;51.776;9.370;2023-02-10T16:53:33;102110.81;;;3.53;67.58
61618;BME280;47518;51.776;9.370;2023-02-10T16:55:58;102100.66;;;3.42;67.78
61618;BME280;47518;51.776;9.370;2023-02-10T16:58:24;102103.25;;;3.59;66.79
61618;BME280;47518;51.776;9.370;2023-02-10T17:00:49;102109.75;;;3.55;67.25
61618;BME280;47518;51.776;9.370;2023-02-10T17:03:15;102109.69;;;3.41;67.42
61618;BME280;47518;51.776;9.370;2023-02-10T17:05:40;102105.44;;;3.37;68.04
61618;BME280;47518;51.776;9.370;2023-02-10T17:08:06;102114.47;;;3.36;68.06
61618;BME280;47518;51.776;9.370;2023-02-10T17:10:31;102119.63;;;3.23;67.88
61618;BME280;47518;51.776;9.370;2023-02-10T17:12:57;102115.31;;;2.87;69.88
61618;BME280;47518;51.776;9.370;2023-02-10T17:15:23;102119.06;;;3.01;69.15
61618;BME280;47518;51.776;9.370;2023-02-10T17:17:49;102127.31;;;2.98;69.88
61618;BME280;47518;51.776;9.370;2023-02-10T17:20:34;102131.78;;;3.14;69.19
61618;BME280;47518;51.776;9.370;2023-02-10T17:23:00;102128.91;;;3.02;69.14
61618;BME280;47518;51.776;9.370;2023-02-10T17:25:28;102125.94;;;3.06;68.93
61618;BME280;47518;51.776;9.370;2023-02-10T17:27:53;102129.13;;;2.97;68.99
61618;BME280;47518;51.776;9.370;2023-02-10T17:30:20;102121.34;;;2.92;69.18
61618;BME280;47518;51.776;9.370;2023-02-10T17:32:46;102123.75;;;2.97;70.08
61618;BME280;47518;51.776;9.370;2023-02-10T17:35:14;102108.97;;;2.73;70.25